sensor_id;sensor_type;location;lat;lon;timestamp;temperature;humidity
728;DHT22;347;48.780;9.158;2022-09-09T00:09:46;18.00;28.00
728;DHT22;347;48.780;9.158;2022-09-09T00:12:34;18.00;27.90
728;DHT22;347;48.780;9.158;2022-09-09T00:15:07;18.00;27.90
728;DHT22;347;48.780;9.158;2022-09-09T00:17:43;18.10;27.90
728;DHT22;347;48.780;9.158;2022-09-09T00:22:59;18.20;27.40
728;DHT22;347;48.780;9.158;2022-09-09T00:28:23;18.40;26.70
728;DHT22;347;48.780;9.158;2022-09-09T00:30:50;18.30;26.40
728;DHT22;347;48.780;9.158;2022-09-09T00:33:22;18.30;26.50
728;DHT22;347;48.780;9.158;2022-09-09T00:35:51;18.30;26.70
728;DHT22;347;48.780;9.158;2022-09-09T00:38:38;18.20;26.50
728;DHT22;347;48.780;9.158;2022-09-09T00:41:22;18.20;26.60
728;DHT22;347;48.780;9.158;2022-09-09T00:44:03;18.20;26.80
728;DHT22;347;48.780;9.158;2022-09-09T00:46:50;18.30;26.60
728;DHT22;347;48.780;9.158;2022-09-09T00:57:40;18.50;26.00
728;DHT22;347;48.780;9.158;2022-09-09T01:05:51;18.50;26.10
728;DHT22;347;48.780;9.158;2022-09-09T01:11:25;18.70;26.10
728;DHT22;347;48.780;9.158;2022-09-09T01:14:16;18.70;25.80
728;DHT22;347;48.780;9.158;2022-09-09T01:16:45;18.80;25.80
728;DHT22;347;48.780;9.158;2022-09-09T01:19:20;18.70;25.90
728;DHT22;347;48.780;9.158;2022-09-09T01:22:22;18.70;25.90
728;DHT22;347;48.780;9.158;2022-09-09T01:27:27;18.60;26.30
728;DHT22;347;48.780;9.158;2022-09-09T01:29:53;18.60;26.50
728;DHT22;347;48.780;9.158;2022-09-09T01:32:45;18.60;26.40
728;DHT22;347;48.780;9.158;2022-09-09T01:35:21;18.60;26.30
728;DHT22;347;48.780;9.158;2022-09-09T01:37:48;18.60;26.60
728;DHT22;347;48.780;9.158;2022-09-09T01:40:14;18.60;26.20
728;DHT22;347;48.780;9.158;2022-09-09T01:42:39;18.50;26.40
728;DHT22;347;48.780;9.158;2022-09-09T01:45:05;18.50;26.40
728;DHT22;347;48.780;9.158;2022-09-09T01:47:32;18.50;26.60
728;DHT22;347;48.780;9.158;2022-09-09T01:49:58;18.60;26.70
728;DHT22;347;48.780;9.158;2022-09-09T01:52:24;18.70;26.50
728;DHT22;347;48.780;9.158;2022-09-09T01:54:50;18.70;26.50
728;DHT22;347;48.780;9.158;2022-09-09T01:57:21;18.70;26.50
728;DHT22;347;48.780;9.158;2022-09-09T01:59:57;18.50;26.90
728;DHT22;347;48.780;9.158;2022-09-09T02:05:35;18.50;27.20
728;DHT22;347;48.780;9.158;2022-09-09T02:08:25;18.50;27.50
728;DHT22;347;48.780;9.158;2022-09-09T02:10:56;18.60;26.70
728;DHT22;347;48.780;9.158;2022-09-09T02:13:25;18.60;27.10
728;DHT22;347;48.780;9.158;2022-09-09T02:15:57;18.60;27.00
728;DHT22;347;48.780;9.158;2022-09-09T02:18:56;18.60;27.30
728;DHT22;347;48.780;9.158;2022-09-09T02:21:23;18.60;27.20
728;DHT22;347;48.780;9.158;2022-09-09T02:23:50;18.50;27.30
728;DHT22;347;48.780;9.158;2022-09-09T02:26:19;18.30;27.80
728;DHT22;347;48.780;9.158;2022-09-09T02:28:51;18.30;28.00
728;DHT22;347;48.780;9.158;2022-09-09T02:31:22;18.20;28.00
728;DHT22;347;48.780;9.158;2022-09-09T02:33:54;18.10;28.70
728;DHT22;347;48.780;9.158;2022-09-09T02:36:24;18.20;28.60
728;DHT22;347;48.780;9.158;2022-09-09T02:38:51;18.20;28.70
728;DHT22;347;48.780;9.158;2022-09-09T02:41:33;18.30;28.40
728;DHT22;347;48.780;9.158;2022-09-09T02:44:00;18.30;28.00
728;DHT22;347;48.780;9.158;2022-09-09T02:52:02;18.10;28.70
728;DHT22;347;48.780;9.158;2022-09-09T02:54:33;18.00;28.90
728;DHT22;347;48.780;9.158;2022-09-09T02:59:30;17.80;29.50
728;DHT22;347;48.780;9.158;2022-09-09T03:01:56;17.80;29.80
728;DHT22;347;48.780;9.158;2022-09-09T03:04:21;17.70;30.00
728;DHT22;347;48.780;9.158;2022-09-09T03:06:47;17.70;30.20
728;DHT22;347;48.780;9.158;2022-09-09T03:09:13;17.60;30.00
728;DHT22;347;48.780;9.158;2022-09-09T03:11:39;17.70;30.10
728;DHT22;347;48.780;9.158;2022-09-09T03:14:04;17.50;30.30
728;DHT22;347;48.780;9.158;2022-09-09T03:16:30;17.60;30.60
728;DHT22;347;48.780;9.158;2022-09-09T03:18:58;17.60;30.50
728;DHT22;347;48.780;9.158;2022-09-09T03:21:24;17.60;30.50
728;DHT22;347;48.780;9.158;2022-09-09T03:23:50;17.60;30.30
728;DHT22;347;48.780;9.158;2022-09-09T03:26:16;17.70;30.10
728;DHT22;347;48.780;9.158;2022-09-09T03:28:42;17.70;30.30
728;DHT22;347;48.780;9.158;2022-09-09T03:31:08;17.80;29.90
728;DHT22;347;48.780;9.158;2022-09-09T03:33:36;17.80;29.70
728;DHT22;347;48.780;9.158;2022-09-09T03:36:03;17.90;29.70
728;DHT22;347;48.780;9.158;2022-09-09T03:38:29;17.80;30.00
728;DHT22;347;48.780;9.158;2022-09-09T03:40:56;17.80;29.80
728;DHT22;347;48.780;9.158;2022-09-09T03:43:24;17.80;29.60
728;DHT22;347;48.780;9.158;2022-09-09T03:45:49;17.70;30.00
728;DHT22;347;48.780;9.158;2022-09-09T03:48:16;17.70;30.10
728;DHT22;347;48.780;9.158;2022-09-09T03:50:46;17.70;30.00
728;DHT22;347;48.780;9.158;2022-09-09T03:53:12;17.60;30.20
728;DHT22;347;48.780;9.158;2022-09-09T03:55:38;17.60;30.40
728;DHT22;347;48.780;9.158;2022-09-09T03:58:04;17.60;30.30
728;DHT22;347;48.780;9.158;2022-09-09T04:00:29;17.70;30.00
728;DHT22;347;48.780;9.158;2022-09-09T04:02:55;17.70;30.00
728;DHT22;347;48.780;9.158;2022-09-09T04:05:22;17.70;30.00
728;DHT22;347;48.780;9.158;2022-09-09T04:07:47;17.60;30.30
728;DHT22;347;48.780;9.158;2022-09-09T04:10:13;17.70;30.30
728;DHT22;347;48.780;9.158;2022-09-09T04:12:39;17.60;31.10
728;DHT22;347;48.780;9.158;2022-09-09T04:15:05;17.40;30.90
728;DHT22;347;48.780;9.158;2022-09-09T04:17:31;17.30;31.40
728;DHT22;347;48.780;9.158;2022-09-09T04:19:56;17.30;31.70
728;DHT22;347;48.780;9.158;2022-09-09T04:22:22;17.30;32.00
728;DHT22;347;48.780;9.158;2022-09-09T04:24:48;17.30;31.70
728;DHT22;347;48.780;9.158;2022-09-09T04:27:14;17.30;31.80
728;DHT22;347;48.780;9.158;2022-09-09T04:29:39;17.20;31.90
728;DHT22;347;48.780;9.158;2022-09-09T04:32:05;17.30;31.70
728;DHT22;347;48.780;9.158;2022-09-09T04:34:30;17.30;31.70
728;DHT22;347;48.780;9.158;2022-09-09T04:36:56;17.30;32.00
728;DHT22;347;48.780;9.158;2022-09-09T04:39:22;17.30;31.80
728;DHT22;347;48.780;9.158;2022-09-09T04:41:48;17.40;31.70
728;DHT22;347;48.780;9.158;2022-09-09T04:44:15;17.30;31.60
728;DHT22;347;48.780;9.158;2022-09-09T04:46:41;17.20;32.00
728;DHT22;347;48.780;9.158;2022-09-09T04:49:07;17.30;32.00
728;DHT22;347;48.780;9.158;2022-09-09T04:51:32;17.30;31.80
728;DHT22;347;48.780;9.158;2022-09-09T04:53:58;17.30;31.90
728;DHT22;347;48.780;9.158;2022-09-09T04:56:24;17.30;32.10
728;DHT22;347;48.780;9.158;2022-09-09T04:58:52;17.30;32.30
728;DHT22;347;48.780;9.158;2022-09-09T05:01:19;17.20;32.30
728;DHT22;347;48.780;9.158;2022-09-09T05:03:47;17.20;32.30
728;DHT22;347;48.780;9.158;2022-09-09T05:06:18;17.20;32.70
728;DHT22;347;48.780;9.158;2022-09-09T05:08:45;17.20;32.40
728;DHT22;347;48.780;9.158;2022-09-09T05:11:37;17.20;32.70
728;DHT22;347;48.780;9.158;2022-09-09T05:14:03;17.20;32.80
728;DHT22;347;48.780;9.158;2022-09-09T05:16:29;17.20;32.70
728;DHT22;347;48.780;9.158;2022-09-09T05:18:55;17.20;32.90
728;DHT22;347;48.780;9.158;2022-09-09T05:21:23;17.30;32.70
728;DHT22;347;48.780;9.158;2022-09-09T05:23:49;17.30;32.70
728;DHT22;347;48.780;9.158;2022-09-09T05:26:19;17.30;32.70
728;DHT22;347;48.780;9.158;2022-09-09T05:28:46;17.20;32.50
728;DHT22;347;48.780;9.158;2022-09-09T05:31:13;17.30;32.50
728;DHT22;347;48.780;9.158;2022-09-09T05:33:41;17.30;32.70
728;DHT22;347;48.780;9.158;2022-09-09T05:36:10;17.30;32.60
728;DHT22;347;48.780;9.158;2022-09-09T05:38:39;17.30;32.70
728;DHT22;347;48.780;9.158;2022-09-09T05:41:06;17.30;32.70
728;DHT22;347;48.780;9.158;2022-09-09T05:43:32;17.40;32.40
728;DHT22;347;48.780;9.158;2022-09-09T05:48:30;17.50;32.20
728;DHT22;347;48.780;9.158;2022-09-09T05:50:58;17.50;31.80
728;DHT22;347;48.780;9.158;2022-09-09T05:53:24;17.60;31.30
728;DHT22;347;48.780;9.158;2022-09-09T05:55:50;17.60;31.40
728;DHT22;347;48.780;9.158;2022-09-09T05:58:15;17.70;31.50
728;DHT22;347;48.780;9.158;2022-09-09T06:00:43;17.70;31.50
728;DHT22;347;48.780;9.158;2022-09-09T06:03:12;17.80;31.00
728;DHT22;347;48.780;9.158;2022-09-09T06:05:38;17.80;30.90
728;DHT22;347;48.780;9.158;2022-09-09T06:08:03;17.90;31.10
728;DHT22;347;48.780;9.158;2022-09-09T06:10:29;17.90;30.90
728;DHT22;347;48.780;9.158;2022-09-09T06:12:54;17.90;31.00
728;DHT22;347;48.780;9.158;2022-09-09T06:15:20;17.80;31.50
728;DHT22;347;48.780;9.158;2022-09-09T06:17:46;17.80;31.70
728;DHT22;347;48.780;9.158;2022-09-09T06:20:12;17.70;31.80
728;DHT22;347;48.780;9.158;2022-09-09T06:22:41;17.70;31.80
728;DHT22;347;48.780;9.158;2022-09-09T06:25:08;17.70;31.90
728;DHT22;347;48.780;9.158;2022-09-09T06:27:35;17.80;32.00
728;DHT22;347;48.780;9.158;2022-09-09T06:30:00;17.80;32.00
728;DHT22;347;48.780;9.158;2022-09-09T06:32:26;17.80;31.80
728;DHT22;347;48.780;9.158;2022-09-09T06:34:52;17.80;32.00
728;DHT22;347;48.780;9.158;2022-09-09T06:37:18;17.90;32.10
728;DHT22;347;48.780;9.158;2022-09-09T06:39:44;17.90;32.00
728;DHT22;347;48.780;9.158;2022-09-09T06:42:09;17.90;31.90
728;DHT22;347;48.780;9.158;2022-09-09T06:44:35;18.00;31.90
728;DHT22;347;48.780;9.158;2022-09-09T06:47:01;18.00;31.80
728;DHT22;347;48.780;9.158;2022-09-09T06:49:27;18.00;31.60
728;DHT22;347;48.780;9.158;2022-09-09T06:51:52;18.00;31.90
728;DHT22;347;48.780;9.158;2022-09-09T06:54:19;18.00;32.20
728;DHT22;347;48.780;9.158;2022-09-09T06:56:45;18.20;31.80
728;DHT22;347;48.780;9.158;2022-09-09T06:59:11;18.10;31.70
728;DHT22;347;48.780;9.158;2022-09-09T07:01:42;18.10;31.80
728;DHT22;347;48.780;9.158;2022-09-09T07:04:12;18.20;31.70
728;DHT22;347;48.780;9.158;2022-09-09T07:06:42;18.30;31.40
728;DHT22;347;48.780;9.158;2022-09-09T07:09:10;18.40;31.20
728;DHT22;347;48.780;9.158;2022-09-09T07:11:44;18.40;30.80
728;DHT22;347;48.780;9.158;2022-09-09T07:14:11;18.50;31.10
728;DHT22;347;48.780;9.158;2022-09-09T07:16:43;18.40;31.10
728;DHT22;347;48.780;9.158;2022-09-09T07:19:10;18.40;31.00
728;DHT22;347;48.780;9.158;2022-09-09T07:21:36;18.40;31.30
728;DHT22;347;48.780;9.158;2022-09-09T07:24:02;18.40;31.60
728;DHT22;347;48.780;9.158;2022-09-09T07:26:30;18.40;31.30
728;DHT22;347;48.780;9.158;2022-09-09T07:28:56;18.50;31.30
728;DHT22;347;48.780;9.158;2022-09-09T07:31:30;18.60;31.10
728;DHT22;347;48.780;9.158;2022-09-09T07:33:56;18.60;31.10
728;DHT22;347;48.780;9.158;2022-09-09T07:36:24;18.70;31.10
728;DHT22;347;48.780;9.158;2022-09-09T07:38:57;18.70;30.70
728;DHT22;347;48.780;9.158;2022-09-09T07:41:41;18.70;30.60
728;DHT22;347;48.780;9.158;2022-09-09T07:44:09;18.80;31.10
728;DHT22;347;48.780;9.158;2022-09-09T07:46:37;18.90;30.80
728;DHT22;347;48.780;9.158;2022-09-09T07:49:05;19.00;30.60
728;DHT22;347;48.780;9.158;2022-09-09T07:51:36;19.00;30.20
728;DHT22;347;48.780;9.158;2022-09-09T07:54:08;19.10;30.00
728;DHT22;347;48.780;9.158;2022-09-09T07:56:35;19.10;30.00
728;DHT22;347;48.780;9.158;2022-09-09T07:59:01;19.20;30.00
728;DHT22;347;48.780;9.158;2022-09-09T08:01:30;19.30;29.60
728;DHT22;347;48.780;9.158;2022-09-09T08:04:02;19.30;29.50
728;DHT22;347;48.780;9.158;2022-09-09T08:06:34;19.30;29.50
728;DHT22;347;48.780;9.158;2022-09-09T08:09:00;19.30;29.50
728;DHT22;347;48.780;9.158;2022-09-09T08:11:28;19.40;29.20
728;DHT22;347;48.780;9.158;2022-09-09T08:13:54;19.60;28.70
728;DHT22;347;48.780;9.158;2022-09-09T08:16:26;19.70;28.00
728;DHT22;347;48.780;9.158;2022-09-09T08:18:53;19.80;28.00
728;DHT22;347;48.780;9.158;2022-09-09T08:21:28;19.90;27.90
728;DHT22;347;48.780;9.158;2022-09-09T08:23:56;19.90;27.60
728;DHT22;347;48.780;9.158;2022-09-09T08:26:24;20.00;27.60
728;DHT22;347;48.780;9.158;2022-09-09T08:28:52;20.10;27.60
728;DHT22;347;48.780;9.158;2022-09-09T08:31:20;20.10;27.10
728;DHT22;347;48.780;9.158;2022-09-09T08:33:47;20.10;26.40
728;DHT22;347;48.780;9.158;2022-09-09T08:36:17;20.20;26.80
728;DHT22;347;48.780;9.158;2022-09-09T08:38:46;20.20;26.60
728;DHT22;347;48.780;9.158;2022-09-09T08:52:00;20.50;26.00
728;DHT22;347;48.780;9.158;2022-09-09T08:54:31;20.60;26.10
728;DHT22;347;48.780;9.158;2022-09-09T08:56:58;20.80;25.30
728;DHT22;347;48.780;9.158;2022-09-09T08:59:24;20.80;24.60
728;DHT22;347;48.780;9.158;2022-09-09T09:07:31;21.00;23.20
728;DHT22;347;48.780;9.158;2022-09-09T09:10:15;21.10;22.50
728;DHT22;347;48.780;9.158;2022-09-09T09:12:47;21.00;22.50
728;DHT22;347;48.780;9.158;2022-09-09T09:15:30;20.90;22.60
728;DHT22;347;48.780;9.158;2022-09-09T09:17:56;20.90;22.30
728;DHT22;347;48.780;9.158;2022-09-09T09:20:41;20.90;22.80
728;DHT22;347;48.780;9.158;2022-09-09T09:23:25;20.80;22.70
728;DHT22;347;48.780;9.158;2022-09-09T09:25:56;20.70;26.30
728;DHT22;347;48.780;9.158;2022-09-09T09:28:27;20.50;28.40
728;DHT22;347;48.780;9.158;2022-09-09T09:30:57;20.30;27.80
728;DHT22;347;48.780;9.158;2022-09-09T09:33:52;20.10;29.00
728;DHT22;347;48.780;9.158;2022-09-09T09:36:20;20.00;28.40
728;DHT22;347;48.780;9.158;2022-09-09T09:44:01;19.50;26.00
728;DHT22;347;48.780;9.158;2022-09-09T09:46:28;19.70;26.20
728;DHT22;347;48.780;9.158;2022-09-09T09:48:58;19.80;24.50
728;DHT22;347;48.780;9.158;2022-09-09T09:51:31;20.10;24.40
728;DHT22;347;48.780;9.158;2022-09-09T09:56:39;20.70;22.80
728;DHT22;347;48.780;9.158;2022-09-09T09:59:10;20.90;22.50
728;DHT22;347;48.780;9.158;2022-09-09T10:01:44;21.20;21.90
728;DHT22;347;48.780;9.158;2022-09-09T10:04:16;21.40;21.40
728;DHT22;347;48.780;9.158;2022-09-09T10:06:43;21.50;21.60
728;DHT22;347;48.780;9.158;2022-09-09T10:12:03;21.60;21.60
728;DHT22;347;48.780;9.158;2022-09-09T10:23:10;22.10;20.00
728;DHT22;347;48.780;9.158;2022-09-09T10:28:58;22.40;21.00
728;DHT22;347;48.780;9.158;2022-09-09T10:40:34;22.20;21.60
728;DHT22;347;48.780;9.158;2022-09-09T10:42:58;22.30;22.10
728;DHT22;347;48.780;9.158;2022-09-09T10:46:16;22.20;22.00
728;DHT22;347;48.780;9.158;2022-09-09T10:48:59;22.20;22.40
728;DHT22;347;48.780;9.158;2022-09-09T10:56:44;22.20;22.90
728;DHT22;347;48.780;9.158;2022-09-09T10:59:28;22.10;22.80
728;DHT22;347;48.780;9.158;2022-09-09T11:02:31;22.00;23.10
728;DHT22;347;48.780;9.158;2022-09-09T11:05:12;22.20;23.10
728;DHT22;347;48.780;9.158;2022-09-09T11:07:58;22.40;22.10
728;DHT22;347;48.780;9.158;2022-09-09T11:13:03;22.40;20.40
728;DHT22;347;48.780;9.158;2022-09-09T11:15:45;22.30;19.40
728;DHT22;347;48.780;9.158;2022-09-09T11:18:17;22.20;18.90
728;DHT22;347;48.780;9.158;2022-09-09T11:20:45;22.20;19.60
728;DHT22;347;48.780;9.158;2022-09-09T11:23:17;22.00;19.20
728;DHT22;347;48.780;9.158;2022-09-09T11:25:48;21.80;18.40
728;DHT22;347;48.780;9.158;2022-09-09T11:36:54;21.30;19.50
728;DHT22;347;48.780;9.158;2022-09-09T11:44:41;21.00;21.60
728;DHT22;347;48.780;9.158;2022-09-09T11:47:27;20.60;21.80
728;DHT22;347;48.780;9.158;2022-09-09T11:52:44;20.10;23.10
728;DHT22;347;48.780;9.158;2022-09-09T11:55:31;20.00;23.30
728;DHT22;347;48.780;9.158;2022-09-09T11:58:25;20.10;23.60
728;DHT22;347;48.780;9.158;2022-09-09T12:00:50;20.30;23.50
728;DHT22;347;48.780;9.158;2022-09-09T12:06:31;20.30;21.90
728;DHT22;347;48.780;9.158;2022-09-09T12:11:40;20.50;21.80
728;DHT22;347;48.780;9.158;2022-09-09T12:14:19;20.40;22.00
728;DHT22;347;48.780;9.158;2022-09-09T12:16:45;20.40;21.40
728;DHT22;347;48.780;9.158;2022-09-09T12:19:21;20.40;22.00
728;DHT22;347;48.780;9.158;2022-09-09T12:24:47;20.70;20.60
728;DHT22;347;48.780;9.158;2022-09-09T12:29:53;21.20;18.70
728;DHT22;347;48.780;9.158;2022-09-09T12:32:24;21.30;18.30
728;DHT22;347;48.780;9.158;2022-09-09T12:34:54;21.30;18.30
728;DHT22;347;48.780;9.158;2022-09-09T12:42:40;21.60;17.30
728;DHT22;347;48.780;9.158;2022-09-09T12:45:18;21.60;17.30
728;DHT22;347;48.780;9.158;2022-09-09T12:48:00;21.50;17.30
728;DHT22;347;48.780;9.158;2022-09-09T12:50:30;21.60;17.60
728;DHT22;347;48.780;9.158;2022-09-09T12:53:01;21.60;17.80
728;DHT22;347;48.780;9.158;2022-09-09T12:55:32;21.60;18.30
728;DHT22;347;48.780;9.158;2022-09-09T12:58:00;21.50;18.40
728;DHT22;347;48.780;9.158;2022-09-09T13:00:30;21.60;18.50
728;DHT22;347;48.780;9.158;2022-09-09T13:02:59;21.70;18.20
728;DHT22;347;48.780;9.158;2022-09-09T13:05:37;21.80;18.00
728;DHT22;347;48.780;9.158;2022-09-09T13:08:06;21.90;17.50
728;DHT22;347;48.780;9.158;2022-09-09T13:10:55;22.00;17.50
728;DHT22;347;48.780;9.158;2022-09-09T13:13:26;22.00;17.20
728;DHT22;347;48.780;9.158;2022-09-09T13:15:54;22.00;18.00
728;DHT22;347;48.780;9.158;2022-09-09T13:18:29;22.10;17.80
728;DHT22;347;48.780;9.158;2022-09-09T13:20:55;22.10;18.00
728;DHT22;347;48.780;9.158;2022-09-09T13:23:27;22.00;17.70
728;DHT22;347;48.780;9.158;2022-09-09T13:26:02;22.00;17.70
728;DHT22;347;48.780;9.158;2022-09-09T13:28:30;22.10;18.10
728;DHT22;347;48.780;9.158;2022-09-09T13:31:00;22.10;18.20
728;DHT22;347;48.780;9.158;2022-09-09T13:33:32;22.20;18.20
728;DHT22;347;48.780;9.158;2022-09-09T13:36:04;22.20;17.20
728;DHT22;347;48.780;9.158;2022-09-09T13:42:02;22.40;15.70
728;DHT22;347;48.780;9.158;2022-09-09T13:44:28;22.50;15.60
728;DHT22;347;48.780;9.158;2022-09-09T13:47:05;22.60;15.20
728;DHT22;347;48.780;9.158;2022-09-09T13:49:32;22.70;14.90
728;DHT22;347;48.780;9.158;2022-09-09T13:52:18;22.80;15.00
728;DHT22;347;48.780;9.158;2022-09-09T13:54:48;22.70;14.60
728;DHT22;347;48.780;9.158;2022-09-09T13:57:20;22.50;14.80
728;DHT22;347;48.780;9.158;2022-09-09T13:59:47;22.60;14.90
728;DHT22;347;48.780;9.158;2022-09-09T14:02:13;22.70;14.90
728;DHT22;347;48.780;9.158;2022-09-09T14:04:39;22.70;14.90
728;DHT22;347;48.780;9.158;2022-09-09T14:07:11;22.60;14.90
728;DHT22;347;48.780;9.158;2022-09-09T14:09:37;22.50;14.80
728;DHT22;347;48.780;9.158;2022-09-09T14:12:03;22.60;14.60
728;DHT22;347;48.780;9.158;2022-09-09T14:14:29;22.80;14.20
728;DHT22;347;48.780;9.158;2022-09-09T14:16:54;22.80;13.60
728;DHT22;347;48.780;9.158;2022-09-09T14:19:20;22.80;14.20
728;DHT22;347;48.780;9.158;2022-09-09T14:21:45;22.80;13.40
728;DHT22;347;48.780;9.158;2022-09-09T14:24:11;22.80;13.90
728;DHT22;347;48.780;9.158;2022-09-09T14:26:37;22.80;14.10
728;DHT22;347;48.780;9.158;2022-09-09T14:29:03;22.80;14.10
728;DHT22;347;48.780;9.158;2022-09-09T14:31:29;22.70;14.00
728;DHT22;347;48.780;9.158;2022-09-09T14:33:55;22.60;14.90
728;DHT22;347;48.780;9.158;2022-09-09T14:36:20;22.60;14.90
728;DHT22;347;48.780;9.158;2022-09-09T14:38:46;22.70;14.70
728;DHT22;347;48.780;9.158;2022-09-09T14:41:15;22.80;13.90
728;DHT22;347;48.780;9.158;2022-09-09T14:43:45;22.70;14.00
728;DHT22;347;48.780;9.158;2022-09-09T14:46:13;22.60;14.00
728;DHT22;347;48.780;9.158;2022-09-09T14:48:40;22.70;13.80
728;DHT22;347;48.780;9.158;2022-09-09T14:53:36;22.70;13.70
728;DHT22;347;48.780;9.158;2022-09-09T14:58:35;22.80;13.40
728;DHT22;347;48.780;9.158;2022-09-09T15:01:28;22.70;13.20
728;DHT22;347;48.780;9.158;2022-09-09T15:03:56;22.70;13.00
728;DHT22;347;48.780;9.158;2022-09-09T15:06:24;22.60;12.90
728;DHT22;347;48.780;9.158;2022-09-09T15:08:52;22.70;13.00
728;DHT22;347;48.780;9.158;2022-09-09T15:11:18;22.70;12.80
728;DHT22;347;48.780;9.158;2022-09-09T15:13:45;22.60;12.90
728;DHT22;347;48.780;9.158;2022-09-09T15:18:38;22.50;13.40
728;DHT22;347;48.780;9.158;2022-09-09T15:21:09;22.30;13.60
728;DHT22;347;48.780;9.158;2022-09-09T15:23:35;22.20;13.70
728;DHT22;347;48.780;9.158;2022-09-09T15:26:02;22.20;14.10
728;DHT22;347;48.780;9.158;2022-09-09T15:28:28;22.20;14.20
728;DHT22;347;48.780;9.158;2022-09-09T15:30:54;22.10;14.30
728;DHT22;347;48.780;9.158;2022-09-09T15:33:21;22.20;14.60
728;DHT22;347;48.780;9.158;2022-09-09T15:35:47;22.10;14.30
728;DHT22;347;48.780;9.158;2022-09-09T15:38:13;22.20;14.60
728;DHT22;347;48.780;9.158;2022-09-09T15:40:39;22.20;14.60
728;DHT22;347;48.780;9.158;2022-09-09T15:43:06;22.20;14.60
728;DHT22;347;48.780;9.158;2022-09-09T15:45:33;22.20;14.60
728;DHT22;347;48.780;9.158;2022-09-09T15:48:03;22.10;14.60
728;DHT22;347;48.780;9.158;2022-09-09T15:50:29;22.20;14.60
728;DHT22;347;48.780;9.158;2022-09-09T15:52:56;22.10;14.50
728;DHT22;347;48.780;9.158;2022-09-09T15:55:22;22.10;15.00
728;DHT22;347;48.780;9.158;2022-09-09T15:57:49;22.10;15.10
728;DHT22;347;48.780;9.158;2022-09-09T16:00:18;22.10;15.60
728;DHT22;347;48.780;9.158;2022-09-09T16:02:43;22.10;14.80
728;DHT22;347;48.780;9.158;2022-09-09T16:05:09;22.00;14.50
728;DHT22;347;48.780;9.158;2022-09-09T16:07:35;22.00;14.50
728;DHT22;347;48.780;9.158;2022-09-09T16:10:01;21.90;14.40
728;DHT22;347;48.780;9.158;2022-09-09T16:12:27;21.90;14.40
728;DHT22;347;48.780;9.158;2022-09-09T16:14:53;21.90;14.60
728;DHT22;347;48.780;9.158;2022-09-09T16:17:18;21.90;14.80
728;DHT22;347;48.780;9.158;2022-09-09T16:19:46;21.90;14.80
728;DHT22;347;48.780;9.158;2022-09-09T16:22:11;21.90;14.70
728;DHT22;347;48.780;9.158;2022-09-09T16:24:37;21.80;15.00
728;DHT22;347;48.780;9.158;2022-09-09T16:27:03;21.90;15.10
728;DHT22;347;48.780;9.158;2022-09-09T16:29:28;21.90;15.20
728;DHT22;347;48.780;9.158;2022-09-09T16:31:54;21.90;15.30
728;DHT22;347;48.780;9.158;2022-09-09T16:34:20;21.90;15.40
728;DHT22;347;48.780;9.158;2022-09-09T16:36:47;21.80;15.90
728;DHT22;347;48.780;9.158;2022-09-09T16:39:18;21.70;16.40
728;DHT22;347;48.780;9.158;2022-09-09T16:41:46;21.60;16.50
728;DHT22;347;48.780;9.158;2022-09-09T16:44:14;21.60;16.70
728;DHT22;347;48.780;9.158;2022-09-09T16:46:45;21.40;17.30
728;DHT22;347;48.780;9.158;2022-09-09T16:49:14;21.30;17.40
728;DHT22;347;48.780;9.158;2022-09-09T16:51:46;21.10;17.10
728;DHT22;347;48.780;9.158;2022-09-09T16:54:12;21.00;18.10
728;DHT22;347;48.780;9.158;2022-09-09T16:56:40;20.80;21.90
728;DHT22;347;48.780;9.158;2022-09-09T16:59:15;20.70;20.50
728;DHT22;347;48.780;9.158;2022-09-09T17:01:43;20.50;20.10
728;DHT22;347;48.780;9.158;2022-09-09T17:04:14;20.30;20.80
728;DHT22;347;48.780;9.158;2022-09-09T17:06:41;20.40;20.10
728;DHT22;347;48.780;9.158;2022-09-09T17:09:11;20.30;20.00
728;DHT22;347;48.780;9.158;2022-09-09T17:11:38;20.10;20.20
728;DHT22;347;48.780;9.158;2022-09-09T17:14:04;20.00;20.60
728;DHT22;347;48.780;9.158;2022-09-09T17:16:31;19.90;20.80
728;DHT22;347;48.780;9.158;2022-09-09T17:18:59;19.80;20.60
728;DHT22;347;48.780;9.158;2022-09-09T17:21:27;19.70;21.10
728;DHT22;347;48.780;9.158;2022-09-09T17:23:54;19.70;21.50
728;DHT22;347;48.780;9.158;2022-09-09T17:26:21;19.60;21.40
728;DHT22;347;48.780;9.158;2022-09-09T17:28:47;19.70;21.50
728;DHT22;347;48.780;9.158;2022-09-09T17:31:15;19.70;21.50
728;DHT22;347;48.780;9.158;2022-09-09T17:33:44;19.80;21.60
728;DHT22;347;48.780;9.158;2022-09-09T17:36:13;19.90;21.60
728;DHT22;347;48.780;9.158;2022-09-09T17:38:39;19.80;21.60
728;DHT22;347;48.780;9.158;2022-09-09T17:43:35;19.80;21.90
728;DHT22;347;48.780;9.158;2022-09-09T17:46:09;19.80;21.80
728;DHT22;347;48.780;9.158;2022-09-09T17:48:36;19.70;22.30
728;DHT22;347;48.780;9.158;2022-09-09T17:51:03;19.60;22.60
728;DHT22;347;48.780;9.158;2022-09-09T17:53:30;19.50;22.80
728;DHT22;347;48.780;9.158;2022-09-09T17:56:05;19.40;23.20
728;DHT22;347;48.780;9.158;2022-09-09T17:58:31;19.40;23.50
728;DHT22;347;48.780;9.158;2022-09-09T18:01:04;19.40;23.60
728;DHT22;347;48.780;9.158;2022-09-09T18:03:33;19.30;23.80
728;DHT22;347;48.780;9.158;2022-09-09T18:06:05;19.30;24.00
728;DHT22;347;48.780;9.158;2022-09-09T18:08:31;19.20;24.20
728;DHT22;347;48.780;9.158;2022-09-09T18:10:57;19.20;24.30
728;DHT22;347;48.780;9.158;2022-09-09T18:13:23;19.20;24.50
728;DHT22;347;48.780;9.158;2022-09-09T18:15:48;19.10;24.80
728;DHT22;347;48.780;9.158;2022-09-09T18:18:14;19.10;24.80
728;DHT22;347;48.780;9.158;2022-09-09T18:20:40;19.10;24.90
728;DHT22;347;48.780;9.158;2022-09-09T18:23:06;19.10;24.90
728;DHT22;347;48.780;9.158;2022-09-09T18:25:37;19.10;25.20
728;DHT22;347;48.780;9.158;2022-09-09T18:28:03;19.10;25.30
728;DHT22;347;48.780;9.158;2022-09-09T18:30:30;19.10;25.30
728;DHT22;347;48.780;9.158;2022-09-09T18:32:56;19.10;25.30
728;DHT22;347;48.780;9.158;2022-09-09T18:35:22;19.20;25.40
728;DHT22;347;48.780;9.158;2022-09-09T18:37:48;19.20;26.60
728;DHT22;347;48.780;9.158;2022-09-09T18:40:14;19.20;26.00
728;DHT22;347;48.780;9.158;2022-09-09T18:42:40;19.30;25.90
728;DHT22;347;48.780;9.158;2022-09-09T18:45:06;19.40;25.40
728;DHT22;347;48.780;9.158;2022-09-09T18:47:31;19.40;25.50
728;DHT22;347;48.780;9.158;2022-09-09T18:49:57;19.30;25.30
728;DHT22;347;48.780;9.158;2022-09-09T18:52:23;19.30;25.40
728;DHT22;347;48.780;9.158;2022-09-09T18:54:49;19.30;25.40
728;DHT22;347;48.780;9.158;2022-09-09T18:57:15;19.30;25.40
728;DHT22;347;48.780;9.158;2022-09-09T18:59:43;19.30;25.40
728;DHT22;347;48.780;9.158;2022-09-09T19:02:08;19.40;25.40
728;DHT22;347;48.780;9.158;2022-09-09T19:04:36;19.40;25.00
728;DHT22;347;48.780;9.158;2022-09-09T19:07:02;19.40;25.20
728;DHT22;347;48.780;9.158;2022-09-09T19:09:30;19.30;25.30
728;DHT22;347;48.780;9.158;2022-09-09T19:11:57;19.10;25.50
728;DHT22;347;48.780;9.158;2022-09-09T19:14:24;19.10;25.70
728;DHT22;347;48.780;9.158;2022-09-09T19:16:50;19.20;25.90
728;DHT22;347;48.780;9.158;2022-09-09T19:19:25;19.20;25.90